createdAt,value
2022-12-01T00:01:19.682Z,101965.22
2022-12-01T00:03:46.457Z,101967.53
2022-12-01T00:06:16.527Z,101973.78
2022-12-01T00:09:04.486Z,101969.69
2022-12-01T00:11:31.867Z,101963.28
2022-12-01T00:13:58.787Z,101964.50
2022-12-01T00:16:25.781Z,101959.13
2022-12-01T00:18:53.622Z,101963.94
2022-12-01T00:21:22.773Z,101960.38
2022-12-01T00:23:57.662Z,101954.66
2022-12-01T00:26:25.826Z,101958.41
2022-12-01T00:28:54.421Z,101955.72
2022-12-01T00:31:21.826Z,101959.66
2022-12-01T00:33:48.611Z,101956.97
2022-12-01T00:36:15.537Z,101960.34
2022-12-01T00:38:42.541Z,101960.53
2022-12-01T00:41:09.547Z,101967.31
2022-12-01T00:43:36.462Z,101961.06
2022-12-01T00:46:03.561Z,101959.81
2022-12-01T00:48:30.440Z,101965.03
2022-12-01T00:50:57.311Z,101956.81
2022-12-01T00:53:24.727Z,101961.44
2022-12-01T00:55:54.064Z,101957.88
2022-12-01T00:58:21.676Z,101966.06
2022-12-01T01:00:48.742Z,101958.03
2022-12-01T01:03:15.802Z,101956.78
2022-12-01T01:05:43.641Z,101960.91
2022-12-01T01:08:14.972Z,101960.53
2022-12-01T01:10:43.802Z,101963.38
2022-12-01T01:13:11.661Z,101956.19
2022-12-01T01:15:38.882Z,101959.56
2022-12-01T01:18:06.714Z,101959.22
2022-12-01T01:20:33.902Z,101961.31
2022-12-01T01:23:00.751Z,101963.63
2022-12-01T01:25:27.530Z,101958.09
2022-12-01T01:27:54.327Z,101952.72
2022-12-01T01:30:21.203Z,101956.28
2022-12-01T01:32:48.037Z,101952.38
2022-12-01T01:35:14.855Z,101948.25
2022-12-01T01:37:41.622Z,101946.66
2022-12-01T01:40:09.135Z,101939.47
2022-12-01T01:42:35.870Z,101945.91
2022-12-01T01:45:02.800Z,101948.75
2022-12-01T01:47:34.556Z,101953.75
2022-12-01T01:50:09.261Z,101944.28
2022-12-01T01:52:45.054Z,101942.28
2022-12-01T01:55:12.823Z,101936.91
2022-12-01T01:57:40.715Z,101948.53
2022-12-01T02:00:14.450Z,101936.03
2022-12-01T02:02:46.051Z,101945.84
2022-12-01T02:05:25.834Z,101939.78
2022-12-01T02:07:55.250Z,101942.84
2022-12-01T02:10:29.598Z,101946.59
2022-12-01T02:13:31.612Z,101950.56
2022-12-01T02:16:17.357Z,101950.56
2022-12-01T02:18:56.253Z,101947.34
2022-12-01T02:21:48.195Z,101947.72
2022-12-01T02:24:25.212Z,101949.84
2022-12-01T02:27:02.284Z,101949.47
2022-12-01T02:29:47.724Z,101950.91
2022-12-01T02:32:33.428Z,101951.97
2022-12-01T02:35:40.334Z,101953.09
2022-12-01T02:38:20.007Z,101954.50
2022-12-01T02:40:50.906Z,101949.13
2022-12-01T02:43:30.612Z,101947.75
2022-12-01T02:46:22.969Z,101951.69
2022-12-01T02:48:53.417Z,101947.38
2022-12-01T02:51:22.521Z,101948.81
2022-12-01T02:53:49.652Z,101952.72
2022-12-01T02:56:21.319Z,101945.22
2022-12-01T02:58:48.080Z,101946.94
2022-12-01T03:01:43.144Z,101939.47
2022-12-01T03:04:25.099Z,101934.47
2022-12-01T03:07:17.488Z,101942.00
2022-12-01T03:09:52.928Z,101936.28
2022-12-01T03:12:19.600Z,101938.09
2022-12-01T03:15:02.156Z,101941.13
2022-12-01T03:17:44.032Z,101935.22
2022-12-01T03:20:41.347Z,101935.22
2022-12-01T03:23:14.160Z,101934.84
2022-12-01T03:25:44.223Z,101932.16
2022-12-01T03:28:21.085Z,101928.78
2022-12-01T03:30:50.982Z,101934.47
2022-12-01T03:33:35.030Z,101932.34
2022-12-01T03:36:09.216Z,101933.78
2022-12-01T03:38:37.662Z,101937.72
2022-12-01T03:41:19.480Z,101936.28
2022-12-01T03:43:53.500Z,101935.56
2022-12-01T03:46:46.511Z,101934.13
2022-12-01T03:49:16.423Z,101941.59
2022-12-01T03:51:46.047Z,101938.91
2022-12-01T03:54:34.605Z,101936.94
2022-12-01T03:57:08.458Z,101929.63
2022-12-01T03:59:37.847Z,101937.69
2022-12-01T04:02:07.090Z,101934.78
2022-12-01T04:04:34.167Z,101942.66
2022-12-01T04:07:00.890Z,101935.84
2022-12-01T04:09:27.711Z,101933.16
2022-12-01T04:12:13.268Z,101934.41
2022-12-01T04:14:40.062Z,101934.41
2022-12-01T04:17:06.819Z,101936.41
2022-12-01T04:19:33.575Z,101944.81
2022-12-01T04:22:00.436Z,101946.22
2022-12-01T04:24:27.152Z,101937.66
2022-12-01T04:26:53.824Z,101934.75
2022-12-01T04:29:20.529Z,101941.56
2022-12-01T04:31:47.381Z,101946.91
2022-12-01T04:34:14.117Z,101941.22
2022-12-01T04:36:40.903Z,101939.09
2022-12-01T04:39:07.589Z,101943.38
2022-12-01T04:41:34.404Z,101944.44
2022-12-01T04:44:01.143Z,101946.06
2022-12-01T04:46:28.268Z,101941.06
2022-12-01T04:48:55.071Z,101951.25
2022-12-01T04:51:22.385Z,101942.69
2022-12-01T04:53:50.756Z,101946.59
2022-12-01T04:56:17.984Z,101936.22
2022-12-01T04:58:45.816Z,101943.03
2022-12-01T05:01:15.236Z,101949.81
2022-12-01T05:03:44.295Z,101938.03
2022-12-01T05:06:17.222Z,101939.28
2022-12-01T05:08:44.120Z,101948.38
2022-12-01T05:11:12.463Z,101941.06
2022-12-01T05:13:40.950Z,101941.94
2022-12-01T05:16:14.006Z,101949.66
2022-12-01T05:18:41.553Z,101948.56
2022-12-01T05:21:10.779Z,101954.16
2022-12-01T05:23:39.035Z,101957.34
2022-12-01T05:26:08.401Z,101956.44
2022-12-01T05:28:36.108Z,101960.91
2022-12-01T05:31:03.898Z,101958.09
2022-12-01T05:33:31.565Z,101955.97
2022-12-01T05:35:58.343Z,101957.09
2022-12-01T05:38:25.204Z,101954.66
2022-12-01T05:40:53.675Z,101956.47
2022-12-01T05:43:28.287Z,101961.81
2022-12-01T05:45:56.187Z,101953.25
2022-12-01T05:48:23.031Z,101958.78
2022-12-01T05:50:49.810Z,101962.72
2022-12-01T05:53:16.798Z,101961.81
2022-12-01T05:55:43.618Z,101966.44
2022-12-01T05:58:10.813Z,101966.44
2022-12-01T06:00:45.401Z,101973.25
2022-12-01T06:03:13.564Z,101969.72
2022-12-01T06:05:41.086Z,101969.31
2022-12-01T06:08:08.417Z,101982.56
2022-12-01T06:10:35.179Z,101977.91
2022-12-01T06:13:01.900Z,101979.16
2022-12-01T06:15:28.692Z,101977.03
2022-12-01T06:17:58.650Z,101976.84
2022-12-01T06:20:25.872Z,101985.09
2022-12-01T06:22:52.666Z,101994.94
2022-12-01T06:25:19.409Z,101994.41
2022-12-01T06:27:46.126Z,101996.56
2022-12-01T06:30:13.249Z,102000.50
2022-12-01T06:32:40.032Z,101997.63
2022-12-01T06:35:07.343Z,101984.78
2022-12-01T06:37:34.163Z,101987.28
2022-12-01T06:40:01.367Z,101980.28
2022-12-01T06:42:31.623Z,101989.44
2022-12-01T06:44:58.409Z,101987.28
2022-12-01T06:47:25.218Z,101991.75
2022-12-01T06:49:52.239Z,101991.19
2022-12-01T06:52:19.271Z,101983.34
2022-12-01T06:54:46.015Z,101982.44
2022-12-01T06:57:12.987Z,101981.53
2022-12-01T06:59:39.849Z,101982.44
2022-12-01T07:02:06.955Z,101988.38
2022-12-01T07:04:33.730Z,101989.44
2022-12-01T07:07:00.459Z,101982.97
2022-12-01T07:09:27.231Z,101984.78
2022-12-01T07:11:53.942Z,101981.72
2022-12-01T07:14:24.848Z,101978.31
2022-12-01T07:16:51.762Z,101976.13
2022-12-01T07:19:19.080Z,101979.91
2022-12-01T07:21:45.935Z,101983.84
2022-12-01T07:24:13.137Z,101982.22
2022-12-01T07:26:41.236Z,101974.69
2022-12-01T07:29:09.376Z,101971.25
2022-12-01T07:31:37.319Z,101969.28
2022-12-01T07:34:05.142Z,101974.09
2022-12-01T07:36:31.984Z,101978.59
2022-12-01T07:38:58.866Z,101980.72
2022-12-01T07:41:25.661Z,101977.47
2022-12-01T07:43:52.449Z,101985.53
2022-12-01T07:46:23.657Z,101982.63
2022-12-01T07:48:52.324Z,101977.41
2022-12-01T07:51:20.015Z,101980.59
2022-12-01T07:53:49.235Z,101982.91
2022-12-01T07:56:16.804Z,101984.16
2022-12-01T07:58:44.430Z,101981.59
2022-12-01T08:01:17.828Z,101984.09
2022-12-01T08:04:01.067Z,101983.66
2022-12-01T08:06:32.716Z,101981.66
2022-12-01T08:08:59.906Z,101978.22
2022-12-01T08:11:29.886Z,101977.44
2022-12-01T08:13:58.991Z,101983.47
2022-12-01T08:16:26.392Z,101979.16
2022-12-01T08:18:53.936Z,101979.09
2022-12-01T08:21:22.643Z,101979.34
2022-12-01T08:23:58.706Z,101978.94
2022-12-01T08:26:26.291Z,101978.53
2022-12-01T08:28:53.225Z,101986.41
2022-12-01T08:31:31.742Z,101979.13
2022-12-01T08:33:59.154Z,101973.78
2022-12-01T08:36:26.660Z,101971.03
2022-12-01T08:38:55.570Z,101976.88
2022-12-01T08:41:24.664Z,101982.25
2022-12-01T08:43:59.635Z,101977.31
2022-12-01T08:46:36.651Z,101970.94
2022-12-01T08:49:06.985Z,101964.44
2022-12-01T08:51:33.988Z,101962.97
2022-12-01T08:54:00.839Z,101961.50
2022-12-01T08:56:31.443Z,101964.69
2022-12-01T08:59:01.832Z,101963.06
2022-12-01T09:01:31.180Z,101963.22
2022-12-01T09:04:06.848Z,101961.94
2022-12-01T09:06:39.714Z,101948.03
2022-12-01T09:09:09.062Z,101943.34
2022-12-01T09:11:35.904Z,101949.00
2022-12-01T09:14:06.603Z,101948.63
2022-12-01T09:16:33.577Z,101949.44
2022-12-01T09:19:00.463Z,101942.09
2022-12-01T09:21:33.009Z,101940.00
2022-12-01T09:24:01.592Z,101939.28
2022-12-01T09:26:28.890Z,101939.94
2022-12-01T09:28:58.817Z,101936.00
2022-12-01T09:31:25.617Z,101934.09
2022-12-01T09:33:57.451Z,101930.31
2022-12-01T09:36:24.566Z,101929.94
2022-12-01T09:38:51.326Z,101933.28
2022-12-01T09:41:43.982Z,101932.94
2022-12-01T09:44:14.101Z,101932.78
2022-12-01T09:46:48.536Z,101934.13
2022-12-01T09:49:56.511Z,101934.75
2022-12-01T09:52:26.714Z,101948.78
2022-12-01T09:54:55.306Z,101937.81
2022-12-01T09:57:33.633Z,101936.66
2022-12-01T10:00:04.604Z,101935.44
2022-12-01T10:02:44.088Z,101936.78
2022-12-01T10:05:16.597Z,101938.41
2022-12-01T10:07:49.056Z,101939.06
2022-12-01T10:10:27.976Z,101944.28
2022-12-01T10:12:54.823Z,101936.41
2022-12-01T10:15:27.392Z,101940.59
2022-12-01T10:17:59.969Z,101927.25
2022-12-01T10:20:49.240Z,101937.09
2022-12-01T10:23:24.860Z,101933.78
2022-12-01T10:26:03.752Z,101931.63
2022-12-01T10:28:49.264Z,101930.88
2022-12-01T10:31:21.621Z,101922.59
2022-12-01T10:34:20.071Z,101921.63
2022-12-01T10:36:47.206Z,101917.88
2022-12-01T10:39:23.948Z,101910.69
2022-12-01T10:41:51.664Z,101894.97
2022-12-01T10:44:19.136Z,101885.19
2022-12-01T10:46:56.248Z,101873.41
2022-12-01T10:49:39.184Z,101873.41
2022-12-01T10:52:07.034Z,101880.50
2022-12-01T10:54:40.156Z,101874.09
2022-12-01T10:57:17.521Z,101886.25
2022-12-01T10:59:58.056Z,101896.56
2022-12-01T11:02:28.098Z,101896.56
2022-12-01T11:05:00.036Z,101902.00
2022-12-01T11:07:44.230Z,101898.63
2022-12-01T11:10:29.955Z,101895.06
2022-12-01T11:13:06.102Z,101902.00
2022-12-01T11:15:38.513Z,101902.13
2022-12-01T11:18:26.970Z,101884.59
2022-12-01T11:21:05.545Z,101898.00
2022-12-01T11:23:35.332Z,101891.03
2022-12-01T11:26:20.744Z,101898.41
2022-12-01T11:29:02.977Z,101897.13
2022-12-01T11:31:50.973Z,101897.31
2022-12-01T11:34:26.678Z,101905.25
2022-12-01T11:37:00.348Z,101908.28
2022-12-01T11:39:37.905Z,101909.84
2022-12-01T11:42:14.660Z,101910.50
2022-12-01T11:44:53.379Z,101908.78
2022-12-01T11:47:24.431Z,101908.28
2022-12-01T11:49:55.294Z,101907.41
2022-12-01T11:52:30.612Z,101909.19
2022-12-01T11:55:19.077Z,101902.94
2022-12-01T11:57:49.388Z,101903.41
2022-12-01T12:00:21.580Z,101904.88
2022-12-01T12:03:00.961Z,101903.50
2022-12-01T12:05:39.776Z,101898.28
2022-12-01T12:08:38.724Z,101904.38
2022-12-01T12:11:22.525Z,101910.63
2022-12-01T12:13:49.296Z,101913.97
2022-12-01T12:16:40.855Z,101930.31
2022-12-01T12:19:34.111Z,101929.28
2022-12-01T12:22:39.882Z,101928.25
2022-12-01T12:25:12.482Z,101921.13
2022-12-01T12:27:47.652Z,101912.19
2022-12-01T12:30:32.123Z,101913.69
2022-12-01T12:33:32.762Z,101919.03
2022-12-01T12:35:59.485Z,101920.78
2022-12-01T12:38:26.191Z,101913.06
2022-12-01T12:41:05.032Z,101926.13
2022-12-01T12:43:57.831Z,101920.78
2022-12-01T12:46:57.742Z,101919.59
2022-12-01T12:49:36.336Z,101916.41
2022-12-01T12:52:10.987Z,101917.03
2022-12-01T12:54:49.969Z,101912.38
2022-12-01T12:57:40.774Z,101918.63
2022-12-01T13:00:18.180Z,101920.41
2022-12-01T13:03:07.421Z,101923.34
2022-12-01T13:05:59.049Z,101921.72
2022-12-01T13:08:34.587Z,101912.03
2022-12-01T13:11:10.619Z,101921.19
2022-12-01T13:13:46.936Z,101923.84
2022-12-01T13:16:18.583Z,101916.38
2022-12-01T13:18:48.315Z,101913.75
2022-12-01T13:21:19.132Z,101911.91
2022-12-01T13:23:48.606Z,101917.53
2022-12-01T13:26:17.471Z,101920.78
2022-12-01T13:28:49.815Z,101920.97
2022-12-01T13:31:19.076Z,101921.13
2022-12-01T13:34:02.816Z,101920.84
2022-12-01T13:36:46.403Z,101917.88
2022-12-01T13:39:29.471Z,101912.56
2022-12-01T13:42:21.787Z,101908.72
2022-12-01T13:44:58.240Z,101908.06
2022-12-01T13:47:24.979Z,101914.88
2022-12-01T13:49:53.093Z,101912.94
2022-12-01T13:52:22.761Z,101918.72
2022-12-01T13:55:09.379Z,101925.84
2022-12-01T13:57:44.967Z,101918.38
2022-12-01T14:00:27.353Z,101915.75
2022-12-01T14:03:12.679Z,101908.31
2022-12-01T14:05:42.334Z,101921.00
2022-12-01T14:08:28.900Z,101908.56
2022-12-01T14:10:59.741Z,101908.84
2022-12-01T14:13:28.324Z,101909.28
2022-12-01T14:16:00.626Z,101904.69
2022-12-01T14:18:40.541Z,101899.81
2022-12-01T14:21:10.594Z,101899.19
2022-12-01T14:23:58.393Z,101891.63
2022-12-01T14:26:25.539Z,101898.88
2022-12-01T14:28:55.197Z,101896.94
2022-12-01T14:31:23.822Z,101894.81
2022-12-01T14:33:54.496Z,101895.72
2022-12-01T14:36:24.337Z,101889.66
2022-12-01T14:38:57.119Z,101890.69
2022-12-01T14:42:02.848Z,101897.50
2022-12-01T14:44:36.450Z,101899.84
2022-12-01T14:47:12.324Z,101900.97
2022-12-01T14:50:10.118Z,101894.72
2022-12-01T14:52:52.249Z,101898.81
2022-12-01T14:55:23.467Z,101899.38
2022-12-01T14:57:52.816Z,101899.38
2022-12-01T15:00:22.466Z,101899.06
2022-12-01T15:02:56.129Z,101904.09
2022-12-01T15:05:27.160Z,101896.41
2022-12-01T15:08:40.235Z,101899.38
2022-12-01T15:11:06.444Z,101897.28
2022-12-01T15:13:39.101Z,101899.06
2022-12-01T15:16:15.259Z,101896.88
2022-12-01T15:18:42.187Z,101898.75
2022-12-01T15:21:11.737Z,101897.28
2022-12-01T15:24:15.403Z,101899.06
2022-12-01T15:26:55.914Z,101899.63
2022-12-01T15:29:33.107Z,101891.59
2022-12-01T15:32:02.496Z,101890.09
2022-12-01T15:34:37.200Z,101894.22
2022-12-01T15:37:07.072Z,101898.66
2022-12-01T15:39:43.629Z,101895.41
2022-12-01T15:42:25.025Z,101891.81
2022-12-01T15:45:02.047Z,101882.16
2022-12-01T15:47:44.940Z,101883.13
2022-12-01T15:50:26.876Z,101886.47
2022-12-01T15:52:53.466Z,101882.06
2022-12-01T15:55:28.196Z,101884.69
2022-12-01T15:57:55.133Z,101887.28
2022-12-01T16:00:22.777Z,101893.78
2022-12-01T16:02:53.361Z,101887.28
2022-12-01T16:05:24.797Z,101892.16
2022-12-01T16:08:13.633Z,101890.78
2022-12-01T16:10:38.783Z,101890.31
2022-12-01T16:13:43.578Z,101875.84
2022-12-01T16:16:31.475Z,101883.81
2022-12-01T16:19:21.907Z,101877.41
2022-12-01T16:21:57.140Z,101887.78
2022-12-01T16:24:28.157Z,101877.41
2022-12-01T16:26:59.455Z,101886.31
2022-12-01T16:29:28.491Z,101892.81
2022-12-01T16:32:19.328Z,101896.06
2022-12-01T16:34:47.254Z,101891.63
2022-12-01T16:37:15.398Z,101886.00
2022-12-01T16:39:42.575Z,101884.22
2022-12-01T16:42:15.765Z,101877.72
2022-12-01T16:44:44.809Z,101875.75
2022-12-01T16:47:23.113Z,101884.53
2022-12-01T16:49:50.919Z,101871.63
2022-12-01T16:55:43.086Z,101883.81
2022-12-01T16:58:10.480Z,101878.44
2022-12-01T17:00:37.242Z,101871.63
2022-12-01T17:03:05.471Z,101879.19
2022-12-01T17:05:33.062Z,101877.06
2022-12-01T17:08:00.330Z,101870.25
2022-12-01T17:10:27.179Z,101877.66
2022-12-01T17:12:54.033Z,101876.75
2022-12-01T17:15:20.992Z,101873.16
2022-12-01T17:17:47.770Z,101860.28
2022-12-01T17:20:14.545Z,101866.03
2022-12-01T17:22:41.698Z,101872.88
2022-12-01T17:25:11.812Z,101865.16
2022-12-01T17:27:39.892Z,101864.41
2022-12-01T17:30:08.064Z,101864.25
2022-12-01T17:32:34.954Z,101869.28
2022-12-01T17:35:01.825Z,101876.34
2022-12-01T17:37:30.741Z,101869.38
2022-12-01T17:39:57.603Z,101863.34
2022-12-01T17:42:24.420Z,101862.47
2022-12-01T17:44:51.359Z,101865.41
2022-12-01T17:47:18.336Z,101861.06
2022-12-01T17:49:45.056Z,101859.06
2022-12-01T17:52:11.999Z,101858.31
2022-12-01T17:54:39.178Z,101858.91
2022-12-01T17:57:07.419Z,101860.38
2022-12-01T17:59:36.959Z,101868.38
2022-12-01T18:02:04.378Z,101866.03
2022-12-01T18:04:31.809Z,101863.84
2022-12-01T18:06:59.187Z,101870.72
2022-12-01T18:09:26.023Z,101871.13
2022-12-01T18:11:56.185Z,101876.19
2022-12-01T18:14:24.343Z,101878.06
2022-12-01T18:16:51.980Z,101878.69
2022-12-01T18:19:19.503Z,101876.06
2022-12-01T18:21:46.467Z,101876.88
2022-12-01T18:24:13.293Z,101873.56
2022-12-01T18:26:41.111Z,101875.56
2022-12-01T18:29:13.013Z,101884.41
2022-12-01T18:31:40.033Z,101877.50
2022-12-01T18:34:08.045Z,101878.63
2022-12-01T18:36:37.605Z,101876.47
2022-12-01T18:39:07.767Z,101879.38
2022-12-01T18:41:35.867Z,101875.00
2022-12-01T18:44:02.775Z,101881.66
2022-12-01T18:46:29.820Z,101882.63
2022-12-01T18:49:04.675Z,101882.84
2022-12-01T18:51:33.616Z,101895.47
2022-12-01T18:54:02.348Z,101889.75
2022-12-01T18:56:30.037Z,101885.81
2022-12-01T18:58:59.499Z,101889.06
2022-12-01T19:01:28.803Z,101886.56
2022-12-01T19:03:56.828Z,101891.19
2022-12-01T19:06:24.770Z,101885.78
2022-12-01T19:08:52.847Z,101887.94
2022-12-01T19:11:20.363Z,101885.72
2022-12-01T19:13:47.884Z,101894.69
2022-12-01T19:16:17.215Z,101888.53
2022-12-01T19:18:44.299Z,101886.03
2022-12-01T19:21:13.281Z,101890.66
2022-12-01T19:23:40.240Z,101887.44
2022-12-01T19:26:10.780Z,101886.84
2022-12-01T19:28:38.697Z,101880.94
2022-12-01T19:31:08.052Z,101880.56
2022-12-01T19:33:35.495Z,101881.59
2022-12-01T19:36:11.189Z,101879.03
2022-12-01T19:38:38.499Z,101881.06
2022-12-01T19:41:06.125Z,101882.34
2022-12-01T19:43:37.182Z,101884.88
2022-12-01T19:46:24.546Z,101883.06
2022-12-01T19:49:01.808Z,101880.06
2022-12-01T19:51:37.388Z,101882.41
2022-12-01T19:54:14.505Z,101888.16
2022-12-01T19:56:41.313Z,101891.75
2022-12-01T19:59:08.215Z,101889.66
2022-12-01T20:01:35.086Z,101886.47
2022-12-01T20:04:01.894Z,101884.50
2022-12-01T20:06:31.336Z,101892.03
2022-12-01T20:09:03.279Z,101888.63
2022-12-01T20:11:32.761Z,101893.66
2022-12-01T20:13:59.901Z,101897.81
2022-12-01T20:16:28.158Z,101902.66
2022-12-01T20:18:55.097Z,101903.34
2022-12-01T20:21:24.960Z,101903.34
2022-12-01T20:23:58.192Z,101905.16
2022-12-01T20:26:30.821Z,101905.16
2022-12-01T20:29:04.044Z,101900.13
2022-12-01T20:31:32.286Z,101909.84
2022-12-01T20:34:01.471Z,101912.69
2022-12-01T20:36:28.540Z,101918.44
2022-12-01T20:38:55.718Z,101922.00
2022-12-01T20:41:23.420Z,101920.22
2022-12-01T20:43:50.331Z,101923.13
2022-12-01T20:46:17.177Z,101919.53
2022-12-01T20:48:44.275Z,101924.06
2022-12-01T20:51:13.694Z,101924.22
2022-12-01T20:53:44.443Z,101918.47
2022-12-01T20:56:21.379Z,101913.63
2022-12-01T20:58:48.164Z,101907.72
2022-12-01T21:01:17.206Z,101917.75
2022-12-01T21:03:45.485Z,101914.00
2022-12-01T21:06:14.629Z,101920.09
2022-12-01T21:08:43.279Z,101908.25
2022-12-01T21:11:45.200Z,101904.47
2022-12-01T21:14:43.987Z,101896.75
2022-12-01T21:17:33.925Z,101899.56
2022-12-01T21:20:12.972Z,101897.22
2022-12-01T21:22:40.007Z,101896.53
2022-12-01T21:25:12.453Z,101888.19
2022-12-01T21:27:43.032Z,101886.44
2022-12-01T21:30:21.998Z,101884.19
2022-12-01T21:32:49.567Z,101889.19
2022-12-01T21:35:22.301Z,101883.25
2022-12-01T21:37:49.883Z,101883.06
2022-12-01T21:40:18.251Z,101892.06
2022-12-01T21:42:45.757Z,101897.84
2022-12-01T21:45:32.124Z,101892.41
2022-12-01T21:48:15.819Z,101899.19
2022-12-01T21:50:42.582Z,101891.41
2022-12-01T21:53:20.249Z,101892.81
2022-12-01T21:55:49.237Z,101887.09
2022-12-01T21:58:24.573Z,101894.97
2022-12-01T22:00:55.726Z,101900.38
2022-12-01T22:03:34.345Z,101897.13
2022-12-01T22:06:32.759Z,101893.00
2022-12-01T22:09:11.957Z,101893.56
2022-12-01T22:11:38.644Z,101888.06
2022-12-01T22:14:08.377Z,101893.25
2022-12-01T22:16:47.017Z,101891.09
2022-12-01T22:19:16.704Z,101890.75
2022-12-01T22:21:54.748Z,101887.53
2022-12-01T22:24:42.243Z,101883.75
2022-12-01T22:27:38.213Z,101880.72
2022-12-01T22:30:08.039Z,101879.47
2022-12-01T22:32:59.045Z,101880.22
2022-12-01T22:35:48.241Z,101878.03
2022-12-01T22:38:38.151Z,101885.41
2022-12-01T22:41:15.895Z,101884.50
2022-12-01T22:43:51.455Z,101887.75
2022-12-01T22:46:32.005Z,101880.03
2022-12-01T22:49:06.382Z,101884.38
2022-12-01T22:51:41.278Z,101881.88
2022-12-01T22:54:24.737Z,101884.72
2022-12-01T22:57:03.621Z,101881.16
2022-12-01T22:59:38.793Z,101876.84
2022-12-01T23:02:23.975Z,101882.03
2022-12-01T23:04:59.003Z,101881.88
2022-12-01T23:07:41.581Z,101884.38
2022-12-01T23:10:33.848Z,101879.69
2022-12-01T23:13:12.772Z,101879.91
2022-12-01T23:15:43.066Z,101882.25
2022-12-01T23:18:24.788Z,101886.34
2022-12-01T23:20:54.038Z,101890.53
2022-12-01T23:23:26.021Z,101890.88
2022-12-01T23:25:52.796Z,101881.25
2022-12-01T23:28:20.391Z,101877.66
2022-12-01T23:30:51.182Z,101884.47
2022-12-01T23:33:29.744Z,101884.47
2022-12-01T23:36:06.000Z,101888.78
2022-12-01T23:38:42.445Z,101888.84
2022-12-01T23:41:38.966Z,101887.06
2022-12-01T23:44:22.691Z,101892.50
2022-12-01T23:46:53.024Z,101892.00
2022-12-01T23:49:24.256Z,101890.91
2022-12-01T23:51:53.749Z,101878.53
2022-12-01T23:54:21.875Z,101880.31
2022-12-01T23:56:53.155Z,101882.44
2022-12-01T23:59:21.129Z,101875.97
